Aérodrome :
LOGIN :

S'inscrire | Disclaimer

   EN    FR    IT 

 










Légende :    VFR   VFR Marginal   IFR   IFR Intensif   IFR Très Intensif
Visi : 
Plafond : 
>= 8 km
>= 3000ft
5 à 8 km
1000 à 3000 ft
1500m à 5 km
500 à 1000 ft
800 à 1500m
200 à 500 ft
< 800m
< 200 ft
Symboles :   Orages  Brouillard  Fortes neiges  Fortes précipitations  Vent > 20 kt
SIGMETs :   Divers  Orages  Givrage  Turbulence  Onde Orograph.  Cendres Volcan.







- Altitude de l'aérodrome : 375 ft
- Code IATA : MST


EHBK - Maastricht Aachen

DERNIER METAR :
  • 200855Z AUTO 24008KT 200V310 9999 SCT020 BKN024 BKN028 18/14 Q1012 NOSIG

METARs EXPIRÉS :
  • 200825Z AUTO 24008KT 210V280 9999 FEW018 BKN024 OVC028 18/14 Q1012 NOSIG
  • 200755Z AUTO 24008KT 210V280 9999 BKN016 BKN019 OVC023 18/14 Q1012 NOSIG
  • 200725Z AUTO 24008KT 200V280 9999 SCT015 OVC019 18/14 Q1012 NOSIG
  • 200655Z AUTO 23007KT 200V270 9999 SCT013 OVC016 17/14 Q1012 NOSIG
  • 200625Z AUTO 23008KT 210V270 8000 BKN011 BKN015 16/14 Q1012 BECMG 9000 BKN012

TAF TAF EHBK
Valide du 20 à 06h jusqu'au 21 à 12h UTC


200513Z 2006/2112 24007KT 7000 BKN008
BECMG 2006/2009 9999 SCT020
BECMG 2011/2014 27010KT
PROB30
TEMPO 2013/2020 6000 SHRA SCT025CB
BECMG 2018/2021 30005KT
Pas de NOTAMs connus pour ce terrain.



MET'MAP, la Météo Aéronautique d'un coup d'oeil ! - Copyright ORBIFLY Décembre 2007 - Disclaimer

ORBIFLY MET'MAP TEAM :

Programmation & Développement : Alexandra Zaïnal
Conception & Développement : Baudouin d'Aumeries
Co-Programmation & Développement : Marc-Olivier Méhu
Soutien technique & logistique : Manuel Goepfert

Contact : metmap@orbifly.com




SOURCES & CREDITS :

   NOAA